Time;durP1;ratioP1;P1;durP2;ratioP2;P2;SDS_P1;SDS_P2;PMS_P1;PMS_P2;Temp;Humidity;BMP_temperature;BMP_pressure;BME280_temperature;BME280_humidity;BME280_pressure;Samples;Min_cycle;Max_cycle;Signal;HPM_P1;HPM_P2
2023/04/19 00:01:07;;;;;;;4.63;4.22;;;;;;;;;;5094214;28;20485;-58
2023/04/19 00:03:34;;;;;;;7.67;4.70;;;;;;;;;;5094086;28;20548;-59
2023/04/19 00:06:01;;;;;;;9.07;5.03;;;;;;;;;;5093813;28;20577;-58
2023/04/19 00:08:28;;;;;;;8.13;4.60;;;;;;;;;;5094121;28;20196;-59
2023/04/19 00:10:56;;;;;;;5.27;3.77;;;;;;;;;;5094040;28;20447;-59
2023/04/19 00:13:23;;;;;;;7.07;4.20;;;;;;;;;;5093935;28;20450;-59
2023/04/19 00:15:50;;;;;;;6.97;4.07;;;;;;;;;;5093057;28;20825;-59
2023/04/19 00:18:17;;;;;;;4.90;4.03;;;;;;;;;;5093833;28;20451;-59
2023/04/19 00:20:44;;;;;;;7.47;3.87;;;;;;;;;;5093677;28;20447;-59
2023/04/19 00:23:11;;;;;;;6.00;4.17;;;;;;;;;;5093876;28;20549;-59
2023/04/19 00:25:38;;;;;;;4.17;3.60;;;;;;;;;;5093609;28;20505;-58
2023/04/19 00:28:06;;;;;;;3.70;3.17;;;;;;;;;;5093736;28;20530;-59
2023/04/19 00:30:33;;;;;;;5.13;3.10;;;;;;;;;;5093568;28;20806;-59
2023/04/19 00:33:00;;;;;;;6.30;3.53;;;;;;;;;;5093481;28;20447;-58
2023/04/19 00:35:27;;;;;;;5.03;2.67;;;;;;;;;;5093385;28;20442;-58
2023/04/19 00:37:54;;;;;;;3.57;3.27;;;;;;;;;;5093394;28;20961;-59
2023/04/19 00:40:21;;;;;;;7.73;3.10;;;;;;;;;;5093528;28;20447;-59
2023/04/19 00:42:47;;;;;;;3.40;2.83;;;;;;;;;;5093478;28;20805;-59
2023/04/19 00:45:16;;;;;;;4.33;3.37;;;;;;;;;;5093314;28;20447;-59
2023/04/19 00:47:43;;;;;;;3.83;3.53;;;;;;;;;;5093066;28;20489;-59
2023/04/19 00:50:10;;;;;;;3.13;2.60;;;;;;;;;;5093442;28;20453;-58
2023/04/19 00:52:37;;;;;;;3.50;3.20;;;;;;;;;;5093432;28;20533;-58
2023/04/19 00:55:05;;;;;;;3.43;2.77;;;;;;;;;;5092995;28;20906;-58
2023/04/19 00:57:32;;;;;;;3.83;2.90;;;;;;;;;;5093098;28;20447;-59
2023/04/19 00:59:59;;;;;;;5.70;2.70;;;;;;;;;;5093081;28;20578;-58
2023/04/19 01:02:28;;;;;;;2.70;2.50;;;;;;;;;;5093004;28;20451;-58
2023/04/19 01:04:55;;;;;;;3.37;2.50;;;;;;;;;;5093249;28;20451;-59
2023/04/19 01:07:22;;;;;;;4.60;3.20;;;;;;;;;;5093044;28;20483;-58
2023/04/19 01:09:49;;;;;;;6.07;2.83;;;;;;;;;;5093088;28;21045;-59
2023/04/19 01:12:16;;;;;;;5.63;2.70;;;;;;;;;;5092972;28;20447;-58
2023/04/19 01:14:43;;;;;;;3.70;2.50;;;;;;;;;;5092795;28;20481;-59
2023/04/19 01:17:10;;;;;;;2.50;2.30;;;;;;;;;;5093160;28;20447;-59
2023/04/19 01:19:38;;;;;;;3.60;2.70;;;;;;;;;;5093042;28;20447;-58
2023/04/19 01:22:05;;;;;;;3.40;2.53;;;;;;;;;;5093031;28;20485;-59
2023/04/19 01:24:34;;;;;;;2.00;1.90;;;;;;;;;;5092963;28;20446;-59
2023/04/19 01:27:02;;;;;;;2.95;2.65;;;;;;;;;;5093228;28;20490;-59
2023/04/19 01:29:29;;;;;;;2.80;2.60;;;;;;;;;;5097220;28;20314;-59
2023/04/19 01:31:56;;;;;;;5.93;2.50;;;;;;;;;;5097133;28;20965;-59
2023/04/19 01:34:23;;;;;;;4.10;3.30;;;;;;;;;;5097009;28;20548;-59
2023/04/19 01:36:50;;;;;;;3.10;2.80;;;;;;;;;;5096914;28;20447;-58
2023/04/19 01:39:17;;;;;;;3.30;2.30;;;;;;;;;;5096802;28;20454;-59
2023/04/19 01:41:45;;;;;;;3.33;2.60;;;;;;;;;;5096736;28;20461;-59
2023/04/19 01:44:12;;;;;;;2.43;2.23;;;;;;;;;;5096808;28;20447;-58
2023/04/19 01:46:41;;;;;;;2.53;2.33;;;;;;;;;;5096923;28;20478;-58
2023/04/19 01:49:08;;;;;;;2.50;2.30;;;;;;;;;;5096776;28;20447;-59
2023/04/19 01:51:35;;;;;;;7.83;2.67;;;;;;;;;;5096536;28;20552;-58
2023/04/19 01:54:02;;;;;;;2.50;2.30;;;;;;;;;;5096297;28;20538;-58
2023/04/19 01:56:29;;;;;;;2.20;2.07;;;;;;;;;;5096375;28;20451;-58
2023/04/19 01:58:57;;;;;;;2.73;2.47;;;;;;;;;;5096476;28;20458;-58
2023/04/19 02:01:24;;;;;;;2.70;2.40;;;;;;;;;;5096477;28;20446;-59
2023/04/19 02:03:51;;;;;;;2.70;2.50;;;;;;;;;;5096257;28;20541;-59
2023/04/19 02:06:18;;;;;;;3.57;2.30;;;;;;;;;;5096321;28;20224;-58
2023/04/19 02:08:45;;;;;;;3.10;2.70;;;;;;;;;;5096205;28;20455;-59
2023/04/19 02:11:13;;;;;;;4.23;2.93;;;;;;;;;;5096138;28;20446;-59
2023/04/19 02:13:41;;;;;;;2.97;2.03;;;;;;;;;;5096323;28;20446;-59
2023/04/19 02:16:09;;;;;;;2.93;2.70;;;;;;;;;;5096259;28;20537;-59
2023/04/19 02:18:38;;;;;;;3.43;2.30;;;;;;;;;;5096078;28;20937;-59
2023/04/19 02:21:05;;;;;;;2.70;2.40;;;;;;;;;;5096019;28;20450;-58
2023/04/19 02:23:32;;;;;;;3.20;2.90;;;;;;;;;;5095881;28;20193;-58
2023/04/19 02:26:00;;;;;;;5.23;2.30;;;;;;;;;;5096030;28;20453;-58
2023/04/19 02:28:27;;;;;;;3.20;2.67;;;;;;;;;;5095957;28;20451;-58
2023/04/19 02:30:54;;;;;;;3.27;2.90;;;;;;;;;;5095847;28;20534;-59
2023/04/19 02:33:22;;;;;;;2.97;2.77;;;;;;;;;;5095641;28;20493;-59
2023/04/19 02:35:49;;;;;;;3.13;2.83;;;;;;;;;;5095703;28;20488;-58
2023/04/19 02:38:16;;;;;;;4.40;2.73;;;;;;;;;;5095377;28;20185;-58
2023/04/19 02:40:43;;;;;;;2.83;2.63;;;;;;;;;;5095185;28;20443;-58
2023/04/19 02:43:10;;;;;;;4.40;2.90;;;;;;;;;;5095675;28;20268;-58
2023/04/19 02:45:37;;;;;;;6.32;3.10;;;;;;;;;;5095585;28;20799;-58
2023/04/19 02:48:04;;;;;;;3.10;2.80;;;;;;;;;;5095411;28;20221;-58
2023/04/19 02:50:33;;;;;;;4.00;3.00;;;;;;;;;;5095385;28;20806;-58
2023/04/19 02:53:00;;;;;;;2.78;2.53;;;;;;;;;;5095373;28;20443;-58
2023/04/19 02:55:26;;;;;;;5.82;2.85;;;;;;;;;;5095477;28;20280;-58
2023/04/19 02:57:53;;;;;;;9.63;3.13;;;;;;;;;;5095446;28;20634;-58
2023/04/19 03:00:20;;;;;;;3.35;3.03;;;;;;;;;;5095220;28;20668;-58
2023/04/19 03:02:47;;;;;;;2.60;2.40;;;;;;;;;;5095212;28;20275;-59
2023/04/19 03:05:14;;;;;;;5.90;3.20;;;;;;;;;;5095106;28;20189;-58
2023/04/19 03:07:42;;;;;;;4.20;3.58;;;;;;;;;;5095025;28;20216;-59
2023/04/19 03:10:10;;;;;;;14.02;3.40;;;;;;;;;;5095297;28;20290;-59
2023/04/19 03:12:37;;;;;;;4.30;2.90;;;;;;;;;;5094909;28;20193;-58
2023/04/19 03:15:04;;;;;;;4.68;2.67;;;;;;;;;;5095031;28;20305;-59
2023/04/19 03:17:31;;;;;;;4.83;3.40;;;;;;;;;;5094855;28;20221;-59
2023/04/19 03:19:58;;;;;;;2.80;2.60;;;;;;;;;;5094787;28;20446;-59
2023/04/19 03:22:25;;;;;;;3.13;2.67;;;;;;;;;;5095002;28;20284;-59
2023/04/19 03:24:53;;;;;;;3.55;2.80;;;;;;;;;;5094804;28;20185;-58
2023/04/19 03:27:20;;;;;;;3.58;2.70;;;;;;;;;;5094722;28;20614;-58
2023/04/19 03:29:47;;;;;;;6.30;3.53;;;;;;;;;;5094741;28;20196;-59
2023/04/19 03:32:14;;;;;;;4.40;3.05;;;;;;;;;;5094503;28;20609;-58
2023/04/19 03:34:41;;;;;;;5.22;3.10;;;;;;;;;;5094754;28;20212;-58
2023/04/19 03:37:07;;;;;;;5.60;2.72;;;;;;;;;;5094624;28;20195;-59
2023/04/19 03:39:34;;;;;;;2.88;2.60;;;;;;;;;;5094554;28;20185;-58
2023/04/19 03:42:03;;;;;;;3.45;3.13;;;;;;;;;;5094499;28;20201;-58
2023/04/19 03:44:31;;;;;;;2.83;2.63;;;;;;;;;;5094472;28;20620;-58
2023/04/19 03:46:59;;;;;;;4.00;3.23;;;;;;;;;;5094208;28;20479;-59
2023/04/19 03:49:26;;;;;;;3.55;2.70;;;;;;;;;;5094389;28;20455;-58
2023/04/19 03:51:53;;;;;;;5.63;2.55;;;;;;;;;;5094317;28;20185;-58
2023/04/19 03:54:20;;;;;;;4.90;3.38;;;;;;;;;;5094090;28;20267;-59
2023/04/19 03:56:46;;;;;;;8.80;3.00;;;;;;;;;;5094189;28;20280;-59
2023/04/19 03:59:15;;;;;;;5.33;2.90;;;;;;;;;;5093973;28;20191;-59
2023/04/19 04:01:42;;;;;;;8.50;3.00;;;;;;;;;;5094037;28;20500;-59
2023/04/19 04:04:09;;;;;;;7.63;2.83;;;;;;;;;;5094099;28;20442;-59
2023/04/19 04:06:36;;;;;;;4.13;2.75;;;;;;;;;;5093977;28;20189;-59
2023/04/19 04:09:02;;;;;;;6.22;2.55;;;;;;;;;;5093954;28;20284;-59
2023/04/19 04:11:30;;;;;;;6.53;2.83;;;;;;;;;;5093842;28;20191;-59
2023/04/19 04:13:57;;;;;;;5.15;2.63;;;;;;;;;;5093669;28;20234;-59
2023/04/19 04:16:25;;;;;;;3.25;2.72;;;;;;;;;;5093679;28;20771;-59
2023/04/19 04:18:52;;;;;;;2.90;2.22;;;;;;;;;;5093894;28;20727;-59
2023/04/19 04:21:19;;;;;;;2.83;2.50;;;;;;;;;;5093707;28;20280;-58
2023/04/19 04:23:48;;;;;;;9.52;2.75;;;;;;;;;;5093551;28;20189;-58
2023/04/19 04:26:15;;;;;;;6.68;2.45;;;;;;;;;;5093491;28;20199;-58
2023/04/19 04:28:42;;;;;;;2.28;2.17;;;;;;;;;;5093376;28;20216;-59
2023/04/19 04:31:11;;;;;;;4.90;2.63;;;;;;;;;;5093643;28;20195;-59
2023/04/19 04:33:40;;;;;;;7.80;2.60;;;;;;;;;;5093666;28;20318;-59
2023/04/19 04:36:10;;;;;;;2.70;2.40;;;;;;;;;;5093435;28;20216;-59
2023/04/19 04:38:37;;;;;;;5.03;2.40;;;;;;;;;;5093520;28;20192;-59
2023/04/19 04:41:04;;;;;;;2.70;2.50;;;;;;;;;;5093199;28;20648;-59
2023/04/19 04:43:32;;;;;;;4.00;2.30;;;;;;;;;;5093474;28;20279;-59
2023/04/19 04:46:00;;;;;;;5.17;2.63;;;;;;;;;;5093539;28;20267;-58
2023/04/19 04:48:26;;;;;;;2.90;2.20;;;;;;;;;;5093215;28;20820;-59
2023/04/19 04:50:55;;;;;;;2.37;2.10;;;;;;;;;;5093277;28;20871;-59
2023/04/19 04:53:22;;;;;;;2.60;2.20;;;;;;;;;;5093050;28;20509;-59
2023/04/19 04:55:49;;;;;;;4.50;2.53;;;;;;;;;;5092921;28;20454;-58
2023/04/19 04:58:15;;;;;;;2.88;2.25;;;;;;;;;;5093121;28;20447;-59
2023/04/19 05:00:42;;;;;;;3.93;2.87;;;;;;;;;;5093446;28;20201;-59
2023/04/19 05:03:09;;;;;;;4.32;2.28;;;;;;;;;;5092699;28;20478;-59
2023/04/19 05:05:37;;;;;;;2.88;2.33;;;;;;;;;;5093066;28;20250;-59
2023/04/19 05:08:05;;;;;;;2.83;2.00;;;;;;;;;;5092730;28;20679;-59
2023/04/19 05:10:32;;;;;;;3.78;2.00;;;;;;;;;;5093074;28;20447;-59
2023/04/19 05:12:59;;;;;;;3.87;2.30;;;;;;;;;;5093088;28;20615;-59
2023/04/19 05:15:26;;;;;;;4.57;2.40;;;;;;;;;;5092948;28;20447;-59
2023/04/19 05:17:53;;;;;;;3.08;2.40;;;;;;;;;;5092917;28;20784;-59
2023/04/19 05:20:20;;;;;;;5.13;2.83;;;;;;;;;;5092876;28;20203;-58
2023/04/19 05:22:47;;;;;;;6.47;2.05;;;;;;;;;;5092688;28;20295;-58
2023/04/19 05:25:15;;;;;;;3.85;2.38;;;;;;;;;;5092717;28;20189;-59
2023/04/19 05:27:42;;;;;;;2.83;2.40;;;;;;;;;;5092723;28;20209;-59
2023/04/19 05:30:09;;;;;;;5.32;2.42;;;;;;;;;;5092407;28;20530;-59
2023/04/19 05:32:36;;;;;;;6.88;2.10;;;;;;;;;;5092401;28;20242;-58
2023/04/19 05:35:03;;;;;;;4.57;2.43;;;;;;;;;;5092237;28;20284;-59
2023/04/19 05:37:30;;;;;;;2.63;2.08;;;;;;;;;;5092805;28;20453;-58
2023/04/19 05:39:58;;;;;;;3.60;1.75;;;;;;;;;;5092694;28;20242;-59
2023/04/19 05:42:26;;;;;;;2.40;2.20;;;;;;;;;;5092523;28;20298;-59
2023/04/19 05:44:53;;;;;;;5.57;2.90;;;;;;;;;;5092433;28;20189;-59
2023/04/19 05:47:20;;;;;;;3.78;2.28;;;;;;;;;;5092344;28;20451;-58
2023/04/19 05:49:47;;;;;;;2.40;1.83;;;;;;;;;;5092347;28;20197;-58
2023/04/19 05:52:13;;;;;;;2.07;1.87;;;;;;;;;;5092704;28;20913;-59
2023/04/19 05:54:40;;;;;;;2.40;1.60;;;;;;;;;;5092242;28;20566;-59
2023/04/19 05:57:08;;;;;;;2.60;1.70;;;;;;;;;;5092456;28;20455;-59
2023/04/19 05:59:36;;;;;;;2.87;2.03;;;;;;;;;;5092674;28;20447;-59
2023/04/19 06:02:03;;;;;;;6.70;2.13;;;;;;;;;;5092164;28;20460;-59
2023/04/19 06:04:30;;;;;;;3.50;2.50;;;;;;;;;;5092127;28;20565;-58
2023/04/19 06:06:57;;;;;;;6.63;2.77;;;;;;;;;;5092434;28;20533;-59
2023/04/19 06:09:24;;;;;;;2.60;2.00;;;;;;;;;;5092305;28;20569;-58
2023/04/19 06:11:53;;;;;;;3.90;2.00;;;;;;;;;;5092337;28;20496;-59
2023/04/19 06:14:20;;;;;;;5.63;2.10;;;;;;;;;;5093109;28;20480;-59
2023/04/19 06:16:48;;;;;;;4.47;2.03;;;;;;;;;;5095707;28;20453;-58
2023/04/19 06:19:15;;;;;;;3.60;1.97;;;;;;;;;;5095688;28;20938;-58
2023/04/19 06:21:42;;;;;;;3.20;2.33;;;;;;;;;;5095993;28;20810;-59
2023/04/19 06:24:09;;;;;;;3.87;2.00;;;;;;;;;;5095886;28;20447;-59
2023/04/19 06:26:36;;;;;;;6.53;2.20;;;;;;;;;;5095750;28;20447;-59
2023/04/19 06:29:03;;;;;;;6.00;1.90;;;;;;;;;;5095596;28;20485;-58
2023/04/19 06:31:30;;;;;;;5.53;2.77;;;;;;;;;;5095451;28;20487;-58
2023/04/19 06:33:59;;;;;;;6.60;2.20;;;;;;;;;;5095579;28;20534;-59
2023/04/19 06:36:26;;;;;;;6.70;2.30;;;;;;;;;;5095602;28;20489;-59
2023/04/19 06:38:53;;;;;;;7.93;2.00;;;;;;;;;;5095432;28;20462;-59
2023/04/19 06:41:20;;;;;;;3.50;2.13;;;;;;;;;;5095487;28;20537;-58
2023/04/19 06:43:47;;;;;;;4.37;1.80;;;;;;;;;;5095148;28;20453;-60
2023/04/19 06:46:14;;;;;;;2.77;2.00;;;;;;;;;;5095307;28;20475;-58
2023/04/19 06:48:41;;;;;;;4.40;1.83;;;;;;;;;;5095033;28;20489;-59
2023/04/19 06:51:10;;;;;;;5.80;1.83;;;;;;;;;;5095184;28;20481;-59
2023/04/19 06:53:37;;;;;;;8.37;2.13;;;;;;;;;;5094888;28;20552;-59
2023/04/19 06:56:04;;;;;;;2.10;1.90;;;;;;;;;;5095127;28;20906;-59
2023/04/19 06:58:32;;;;;;;9.90;2.07;;;;;;;;;;5094826;28;20443;-58
2023/04/19 07:01:00;;;;;;;3.13;1.80;;;;;;;;;;5095248;28;20447;-59
2023/04/19 07:03:27;;;;;;;2.80;2.50;;;;;;;;;;5095052;28;20458;-59
2023/04/19 07:05:55;;;;;;;4.03;2.00;;;;;;;;;;5095109;28;20453;-58
2023/04/19 07:08:23;;;;;;;27.10;5.43;;;;;;;;;;5094732;28;20467;-58
2023/04/19 07:10:50;;;;;;;5.23;2.50;;;;;;;;;;5094922;28;20562;-58
2023/04/19 07:13:17;;;;;;;5.00;2.00;;;;;;;;;;5094790;28;20447;-58
2023/04/19 07:15:44;;;;;;;2.80;1.70;;;;;;;;;;5094744;28;20446;-59
2023/04/19 07:18:13;;;;;;;3.03;2.00;;;;;;;;;;5094957;28;20458;-58
2023/04/19 07:20:43;;;;;;;1.93;1.73;;;;;;;;;;5094716;28;20515;-60
2023/04/19 07:23:10;;;;;;;8.43;2.93;;;;;;;;;;5094601;28;20451;-59
2023/04/19 07:25:39;;;;;;;2.33;1.70;;;;;;;;;;5094238;28;20483;-62
2023/04/19 07:28:06;;;;;;;3.20;1.73;;;;;;;;;;5094478;28;20831;-62
2023/04/19 07:30:32;;;;;;;2.00;1.80;;;;;;;;;;5094593;28;20799;-62
2023/04/19 07:33:03;;;;;;;6.20;1.90;;;;;;;;;;5094453;28;20447;-63
2023/04/19 07:35:30;;;;;;;3.17;1.87;;;;;;;;;;5078316;28;20459;-63
2023/04/19 07:37:56;;;;;;;2.70;1.57;;;;;;;;;;5074031;28;20448;-62
2023/04/19 07:40:23;;;;;;;3.60;2.10;;;;;;;;;;5074081;28;20812;-60
2023/04/19 07:42:52;;;;;;;2.60;1.77;;;;;;;;;;5074108;28;20535;-61
2023/04/19 07:45:19;;;;;;;2.13;1.83;;;;;;;;;;5074081;28;20440;-60
2023/04/19 07:47:46;;;;;;;2.70;1.60;;;;;;;;;;5073812;28;20539;-60
2023/04/19 07:50:13;;;;;;;2.20;1.80;;;;;;;;;;5073829;28;20538;-62
2023/04/19 07:52:40;;;;;;;2.70;2.27;;;;;;;;;;5073708;28;20814;-61
2023/04/19 07:55:07;;;;;;;2.73;1.93;;;;;;;;;;5073471;28;20475;-61
2023/04/19 07:57:35;;;;;;;4.33;1.80;;;;;;;;;;5073810;28;20483;-60
2023/04/19 08:00:03;;;;;;;5.97;2.30;;;;;;;;;;5089932;28;20459;-59
2023/04/19 08:02:30;;;;;;;5.43;2.20;;;;;;;;;;5093837;28;20451;-59
2023/04/19 08:04:57;;;;;;;3.67;2.30;;;;;;;;;;5093856;28;20784;-61
2023/04/19 08:07:25;;;;;;;3.00;2.53;;;;;;;;;;5093634;28;20482;-59
2023/04/19 08:09:51;;;;;;;6.17;2.57;;;;;;;;;;5093681;28;20498;-61
2023/04/19 08:12:18;;;;;;;5.40;2.13;;;;;;;;;;5093737;28;20792;-62
2023/04/19 08:14:46;;;;;;;3.90;2.27;;;;;;;;;;5093789;28;20544;-62
2023/04/19 08:17:16;;;;;;;8.90;2.77;;;;;;;;;;5093505;28;20529;-59
2023/04/19 08:19:43;;;;;;;5.30;3.03;;;;;;;;;;5093452;28;20930;-60
2023/04/19 08:22:10;;;;;;;2.63;2.43;;;;;;;;;;5093719;28;20450;-65
2023/04/19 08:24:37;;;;;;;5.13;2.93;;;;;;;;;;5093568;28;20545;-66
2023/04/19 08:27:04;;;;;;;2.60;2.03;;;;;;;;;;5092973;28;20821;-67
2023/04/19 08:29:32;;;;;;;2.83;2.63;;;;;;;;;;5093431;28;20479;-66
2023/04/19 08:32:00;;;;;;;6.40;2.70;;;;;;;;;;5093253;28;20447;-67
2023/04/19 08:34:28;;;;;;;3.97;2.70;;;;;;;;;;5093290;28;20473;-66
2023/04/19 08:36:55;;;;;;;8.10;2.97;;;;;;;;;;5092771;28;20478;-66
2023/04/19 08:39:22;;;;;;;7.57;2.80;;;;;;;;;;5093242;28;20458;-66
2023/04/19 08:41:50;;;;;;;4.00;2.30;;;;;;;;;;5093269;28;20453;-66
2023/04/19 08:44:17;;;;;;;4.47;2.60;;;;;;;;;;5093196;28;20541;-66
2023/04/19 08:46:45;;;;;;;6.60;2.83;;;;;;;;;;5093145;28;20561;-66
2023/04/19 08:49:12;;;;;;;3.20;2.30;;;;;;;;;;5093085;28;20467;-66
2023/04/19 08:51:41;;;;;;;4.80;2.50;;;;;;;;;;5093206;28;20453;-66
2023/04/19 08:54:08;;;;;;;3.83;2.37;;;;;;;;;;5092924;28;20514;-66
2023/04/19 08:56:36;;;;;;;2.53;2.23;;;;;;;;;;5093054;28;20800;-66
2023/04/19 08:59:03;;;;;;;3.43;2.50;;;;;;;;;;5093018;28;20451;-66
2023/04/19 09:01:30;;;;;;;7.07;2.60;;;;;;;;;;5092743;28;20538;-66
2023/04/19 09:03:57;;;;;;;4.10;2.30;;;;;;;;;;5093121;28;20447;-66
2023/04/19 09:06:25;;;;;;;6.80;2.67;;;;;;;;;;5092955;28;20451;-66
2023/04/19 09:08:57;;;;;;;4.30;2.43;;;;;;;;;;5092829;28;20486;-66
2023/04/19 09:11:37;;;;;;;7.73;2.67;;;;;;;;;;5092889;28;20451;-66
2023/04/19 09:14:08;;;;;;;5.10;2.60;;;;;;;;;;5092852;28;20512;-66
2023/04/19 09:16:36;;;;;;;6.23;3.20;;;;;;;;;;5092641;28;20898;-65
2023/04/19 09:19:03;;;;;;;7.40;2.53;;;;;;;;;;5092926;28;20451;-65
2023/04/19 09:21:31;;;;;;;5.47;3.03;;;;;;;;;;5092731;28;20533;-65
2023/04/19 09:23:59;;;;;;;3.00;2.70;;;;;;;;;;5092700;28;20453;-66
2023/04/19 09:26:28;;;;;;;4.03;2.20;;;;;;;;;;5092633;28;20445;-66
2023/04/19 09:28:59;;;;;;;3.97;2.53;;;;;;;;;;5092885;28;20474;-66
2023/04/19 09:31:27;;;;;;;7.73;3.30;;;;;;;;;;5092608;28;20454;-66
2023/04/19 09:33:54;;;;;;;5.63;2.90;;;;;;;;;;5092587;28;20447;-66
2023/04/19 09:36:28;;;;;;;3.83;2.53;;;;;;;;;;5092830;28;20453;-66
2023/04/19 09:38:55;;;;;;;3.70;2.97;;;;;;;;;;5092662;28;21015;-66
2023/04/19 09:41:23;;;;;;;3.20;2.83;;;;;;;;;;5092823;28;20447;-66
2023/04/19 09:43:51;;;;;;;4.50;2.90;;;;;;;;;;5092797;28;20443;-66
2023/04/19 09:46:30;;;;;;;2.63;2.17;;;;;;;;;;5092614;28;20504;-66
2023/04/19 09:49:15;;;;;;;3.30;2.77;;;;;;;;;;5094491;28;20826;-66
2023/04/19 09:51:42;;;;;;;5.10;3.30;;;;;;;;;;5096786;28;20538;-66
2023/04/19 09:54:10;;;;;;;3.30;2.50;;;;;;;;;;5096248;28;20563;-66
2023/04/19 09:56:39;;;;;;;5.20;3.03;;;;;;;;;;5096402;28;20447;-66
2023/04/19 09:59:06;;;;;;;3.40;2.43;;;;;;;;;;5096496;28;20507;-66
2023/04/19 10:01:35;;;;;;;4.40;2.80;;;;;;;;;;5096307;28;20443;-66
2023/04/19 10:04:04;;;;;;;3.03;2.70;;;;;;;;;;5096177;28;20447;-66
2023/04/19 10:06:32;;;;;;;10.10;4.57;;;;;;;;;;5096293;28;20964;-66
2023/04/19 10:09:01;;;;;;;2.73;2.50;;;;;;;;;;5096139;28;20470;-66
2023/04/19 10:11:35;;;;;;;2.70;2.50;;;;;;;;;;5096117;28;20477;-66
2023/04/19 10:14:04;;;;;;;4.10;2.60;;;;;;;;;;5096118;28;20450;-66
2023/04/19 10:16:31;;;;;;;4.63;2.73;;;;;;;;;;5095859;28;20478;-66
2023/04/19 10:18:59;;;;;;;3.37;2.87;;;;;;;;;;5096041;28;20451;-66
2023/04/19 10:21:27;;;;;;;3.00;2.80;;;;;;;;;;5095873;28;20483;-66
2023/04/19 10:23:54;;;;;;;2.57;2.33;;;;;;;;;;5095925;28;20538;-66
2023/04/19 10:26:22;;;;;;;3.80;2.73;;;;;;;;;;5095659;28;20508;-66
2023/04/19 10:28:48;;;;;;;3.57;2.67;;;;;;;;;;5095693;28;20451;-66
2023/04/19 10:31:22;;;;;;;5.20;2.90;;;;;;;;;;5095914;28;20926;-66
2023/04/19 10:33:49;;;;;;;5.83;2.73;;;;;;;;;;5095842;28;20443;-67
2023/04/19 10:36:17;;;;;;;4.90;2.73;;;;;;;;;;5095728;28;20500;-67
2023/04/19 10:38:46;;;;;;;3.60;3.20;;;;;;;;;;5095511;28;20442;-66
2023/04/19 10:41:14;;;;;;;7.73;3.27;;;;;;;;;;5095595;28;20447;-64
2023/04/19 10:43:41;;;;;;;4.80;2.90;;;;;;;;;;5095780;28;20461;-58
2023/04/19 10:46:09;;;;;;;5.47;3.13;;;;;;;;;;5094485;28;20819;-58
2023/04/19 10:48:42;;;;;;;3.10;2.77;;;;;;;;;;5095029;28;20636;-58
2023/04/19 10:51:18;;;;;;;4.70;2.93;;;;;;;;;;5094625;28;20872;-59
2023/04/19 10:53:45;;;;;;;3.70;2.87;;;;;;;;;;5095180;28;20470;-59
2023/04/19 10:56:12;;;;;;;8.83;3.50;;;;;;;;;;5095243;28;20447;-59
2023/04/19 10:58:58;;;;;;;4.30;2.63;;;;;;;;;;5095207;28;20541;-62
2023/04/19 11:01:32;;;;;;;2.90;2.60;;;;;;;;;;5080400;28;20907;-59
2023/04/19 11:04:00;;;;;;;6.40;3.40;;;;;;;;;;5074791;28;20455;-59
2023/04/19 11:06:27;;;;;;;5.30;2.73;;;;;;;;;;5074542;28;20505;-61
2023/04/19 11:08:54;;;;;;;2.90;2.70;;;;;;;;;;5074971;28;20509;-61
2023/04/19 11:11:22;;;;;;;3.60;3.30;;;;;;;;;;5074747;28;20452;-60
2023/04/19 11:13:49;;;;;;;3.63;2.60;;;;;;;;;;5074765;28;20452;-61
2023/04/19 11:16:16;;;;;;;6.87;3.20;;;;;;;;;;5074738;28;20521;-59
2023/04/19 11:18:44;;;;;;;5.07;3.50;;;;;;;;;;5075091;28;20931;-61
2023/04/19 11:21:15;;;;;;;4.77;3.70;;;;;;;;;;5074129;28;20456;-61
2023/04/19 11:23:42;;;;;;;4.23;3.30;;;;;;;;;;5074544;28;20555;-59
2023/04/19 11:26:10;;;;;;;5.07;3.07;;;;;;;;;;5074238;28;20981;-58
2023/04/19 11:28:38;;;;;;;5.77;3.30;;;;;;;;;;5074391;28;20649;-60
2023/04/19 11:31:05;;;;;;;4.33;3.23;;;;;;;;;;5074086;28;20563;-61
2023/04/19 11:33:33;;;;;;;3.40;3.10;;;;;;;;;;5074170;28;20488;-60
2023/04/19 11:36:00;;;;;;;6.93;3.40;;;;;;;;;;5074249;28;20601;-59
2023/04/19 11:38:29;;;;;;;3.67;2.83;;;;;;;;;;5074195;28;20804;-59
2023/04/19 11:41:00;;;;;;;5.50;3.50;;;;;;;;;;5074090;28;20886;-60
2023/04/19 11:43:32;;;;;;;2.93;2.60;;;;;;;;;;5074129;28;20943;-61
2023/04/19 11:46:05;;;;;;;3.00;2.70;;;;;;;;;;5074039;28;20451;-64
2023/04/19 11:48:32;;;;;;;6.10;3.47;;;;;;;;;;5074073;28;20448;-64
2023/04/19 11:51:00;;;;;;;4.10;2.80;;;;;;;;;;5074017;28;20571;-60
2023/04/19 11:53:27;;;;;;;5.00;2.80;;;;;;;;;;5073694;28;20572;-59
2023/04/19 11:55:57;;;;;;;3.67;2.80;;;;;;;;;;5073826;28;20484;-62
2023/04/19 11:58:28;;;;;;;4.80;2.53;;;;;;;;;;5073577;28;20474;-61
2023/04/19 12:00:57;;;;;;;3.93;3.27;;;;;;;;;;5073862;28;20456;-61
2023/04/19 12:03:24;;;;;;;5.53;3.00;;;;;;;;;;5073753;28;20452;-60
2023/04/19 12:05:54;;;;;;;2.80;2.60;;;;;;;;;;5073639;28;20455;-60
2023/04/19 12:08:30;;;;;;;3.37;3.07;;;;;;;;;;5073591;28;20995;-61
2023/04/19 12:10:59;;;;;;;3.33;3.03;;;;;;;;;;5073138;28;20484;-61
2023/04/19 12:13:26;;;;;;;4.20;2.80;;;;;;;;;;5072996;28;20498;-60
2023/04/19 12:15:54;;;;;;;5.20;2.80;;;;;;;;;;5092339;28;20443;-59
2023/04/19 12:18:21;;;;;;;2.70;2.47;;;;;;;;;;5093730;28;20882;-59
2023/04/19 12:20:48;;;;;;;4.10;2.73;;;;;;;;;;5093710;28;20972;-59
2023/04/19 12:23:15;;;;;;;3.83;2.90;;;;;;;;;;5093547;28;20451;-61
2023/04/19 12:25:42;;;;;;;4.40;2.77;;;;;;;;;;5093362;28;20790;-59
2023/04/19 12:28:11;;;;;;;6.23;2.60;;;;;;;;;;5093477;28;20538;-60
2023/04/19 12:30:38;;;;;;;3.50;2.60;;;;;;;;;;5093273;28;20572;-61
2023/04/19 12:33:06;;;;;;;5.55;3.05;;;;;;;;;;5092804;28;20448;-60
2023/04/19 12:35:33;;;;;;;3.72;2.90;;;;;;;;;;5093217;28;20094;-60
2023/04/19 12:38:01;;;;;;;2.97;2.77;;;;;;;;;;5093126;28;20533;-55
2023/04/19 12:40:28;;;;;;;6.97;3.13;;;;;;;;;;5092888;28;20486;-55
2023/04/19 12:42:55;;;;;;;4.60;3.10;;;;;;;;;;5092141;28;20540;-58
2023/04/19 12:45:23;;;;;;;5.10;3.10;;;;;;;;;;5093104;28;20253;-57
2023/04/19 12:47:50;;;;;;;4.40;3.25;;;;;;;;;;5092762;28;20877;-59
2023/04/19 12:50:17;;;;;;;4.38;3.40;;;;;;;;;;5091641;28;20492;-58
2023/04/19 12:52:45;;;;;;;8.03;2.33;;;;;;;;;;5092632;28;20288;-60
2023/04/19 12:55:12;;;;;;;3.33;3.03;;;;;;;;;;5092639;28;20478;-59
2023/04/19 12:57:40;;;;;;;3.27;2.97;;;;;;;;;;5092746;28;20506;-59
2023/04/19 13:00:09;;;;;;;3.57;3.10;;;;;;;;;;5092856;28;20455;-58
2023/04/19 13:02:37;;;;;;;4.43;2.77;;;;;;;;;;5092947;28;20554;-60
2023/04/19 13:05:05;;;;;;;5.83;3.47;;;;;;;;;;5092671;28;20546;-60
2023/04/19 13:07:32;;;;;;;4.90;3.50;;;;;;;;;;5092913;28;20447;-60
2023/04/19 13:09:59;;;;;;;4.70;3.40;;;;;;;;;;5092724;28;20500;-60
2023/04/19 13:12:26;;;;;;;3.73;3.43;;;;;;;;;;5092766;28;20461;-60
2023/04/19 13:14:53;;;;;;;5.70;3.13;;;;;;;;;;5092897;28;20788;-60
2023/04/19 13:17:20;;;;;;;6.50;2.80;;;;;;;;;;5092825;28;20473;-60
2023/04/19 13:19:49;;;;;;;4.73;3.67;;;;;;;;;;5092701;28;20557;-60
2023/04/19 13:22:16;;;;;;;5.17;3.30;;;;;;;;;;5092739;28;20953;-60
2023/04/19 13:24:43;;;;;;;6.07;3.37;;;;;;;;;;5096287;28;20971;-60
2023/04/19 13:27:10;;;;;;;3.83;3.50;;;;;;;;;;5097144;28;20772;-61
2023/04/19 13:29:37;;;;;;;3.40;3.20;;;;;;;;;;5096897;28;20805;-61
2023/04/19 13:32:06;;;;;;;3.57;3.13;;;;;;;;;;5096772;28;20482;-61
2023/04/19 13:34:33;;;;;;;9.67;4.23;;;;;;;;;;5097043;28;20853;-60
2023/04/19 13:37:01;;;;;;;6.97;4.03;;;;;;;;;;5096853;28;20537;-60
2023/04/19 13:39:28;;;;;;;8.57;3.37;;;;;;;;;;5096914;28;20541;-61
2023/04/19 13:41:55;;;;;;;6.17;5.43;;;;;;;;;;5096644;28;20451;-60
2023/04/19 13:44:24;;;;;;;8.13;4.30;;;;;;;;;;5096492;28;20450;-60
2023/04/19 13:46:50;;;;;;;9.30;4.43;;;;;;;;;;5096418;28;20454;-60
2023/04/19 13:49:17;;;;;;;5.07;3.37;;;;;;;;;;5096702;28;20442;-60
2023/04/19 13:51:44;;;;;;;5.40;2.80;;;;;;;;;;5096402;28;20485;-60
2023/04/19 13:54:13;;;;;;;5.30;3.30;;;;;;;;;;5096399;28;20480;-60
2023/04/19 13:56:40;;;;;;;4.13;3.10;;;;;;;;;;5096358;28;20474;-61
2023/04/19 13:59:07;;;;;;;4.30;3.80;;;;;;;;;;5096401;28;20534;-60
2023/04/19 14:01:34;;;;;;;4.50;4.10;;;;;;;;;;5096315;28;20457;-60
2023/04/19 14:04:01;;;;;;;3.73;3.20;;;;;;;;;;5096380;28;20447;-60
2023/04/19 14:06:28;;;;;;;4.67;4.10;;;;;;;;;;5096365;28;20533;-60
2023/04/19 14:08:55;;;;;;;3.90;3.50;;;;;;;;;;5096280;28;20668;-60
2023/04/19 14:11:23;;;;;;;6.73;4.27;;;;;;;;;;5095918;28;20482;-61
2023/04/19 14:13:50;;;;;;;4.40;4.00;;;;;;;;;;5096055;28;20446;-61
2023/04/19 14:16:17;;;;;;;4.20;3.80;;;;;;;;;;5096043;28;20545;-60
2023/04/19 14:18:44;;;;;;;5.50;4.37;;;;;;;;;;5096325;28;20537;-61
2023/04/19 14:21:11;;;;;;;4.73;4.23;;;;;;;;;;5096071;28;20550;-61
2023/04/19 14:23:38;;;;;;;4.73;3.80;;;;;;;;;;5095951;28;20542;-61
2023/04/19 14:26:06;;;;;;;4.80;4.30;;;;;;;;;;5096015;28;20960;-61
2023/04/19 14:28:34;;;;;;;4.00;3.70;;;;;;;;;;5095767;28;20447;-60
2023/04/19 14:31:01;;;;;;;4.50;4.10;;;;;;;;;;5095799;28;20518;-60
2023/04/19 14:33:28;;;;;;;4.83;4.20;;;;;;;;;;5095914;28;20538;-61
2023/04/19 14:35:55;;;;;;;5.10;3.70;;;;;;;;;;5094644;28;20451;-59
2023/04/19 14:38:22;;;;;;;4.43;4.07;;;;;;;;;;5095733;28;20451;-59
2023/04/19 14:40:49;;;;;;;4.33;3.80;;;;;;;;;;5095584;28;20537;-58
2023/04/19 14:43:16;;;;;;;11.90;10.73;;;;;;;;;;5095483;28;20447;-59
2023/04/19 14:45:45;;;;;;;7.67;6.57;;;;;;;;;;5095639;28;20517;-59